sensor_id;sensor_type;location;lat;lon;timestamp;temperature;humidity
16408;DHT22;8313;49.894;8.084;2023-08-01T00:02:06;18.90;99.90
16408;DHT22;8313;49.894;8.084;2023-08-01T00:04:32;18.90;99.90
16408;DHT22;8313;49.894;8.084;2023-08-01T00:06:57;18.90;99.90
16408;DHT22;8313;49.894;8.084;2023-08-01T00:09:23;18.90;99.90
16408;DHT22;8313;49.894;8.084;2023-08-01T00:11:49;18.80;99.90
16408;DHT22;8313;49.894;8.084;2023-08-01T00:14:14;18.70;99.90
16408;DHT22;8313;49.894;8.084;2023-08-01T00:16:40;18.50;99.90
16408;DHT22;8313;49.894;8.084;2023-08-01T00:19:05;18.60;99.90
16408;DHT22;8313;49.894;8.084;2023-08-01T00:21:31;18.70;99.90
16408;DHT22;8313;49.894;8.084;2023-08-01T00:23:57;18.80;99.90
16408;DHT22;8313;49.894;8.084;2023-08-01T00:26:23;18.70;99.90
16408;DHT22;8313;49.894;8.084;2023-08-01T00:28:49;18.70;99.90
16408;DHT22;8313;49.894;8.084;2023-08-01T00:31:15;18.60;99.90
16408;DHT22;8313;49.894;8.084;2023-08-01T00:33:40;18.50;99.90
16408;DHT22;8313;49.894;8.084;2023-08-01T00:36:06;18.60;99.90
16408;DHT22;8313;49.894;8.084;2023-08-01T00:38:36;18.60;99.90
16408;DHT22;8313;49.894;8.084;2023-08-01T00:41:03;18.60;99.90
16408;DHT22;8313;49.894;8.084;2023-08-01T00:43:28;18.60;99.90
16408;DHT22;8313;49.894;8.084;2023-08-01T00:45:59;18.50;99.90
16408;DHT22;8313;49.894;8.084;2023-08-01T00:48:27;18.50;99.90
16408;DHT22;8313;49.894;8.084;2023-08-01T00:50:52;18.60;99.90
16408;DHT22;8313;49.894;8.084;2023-08-01T00:53:19;18.70;99.90
16408;DHT22;8313;49.894;8.084;2023-08-01T00:55:45;18.60;99.90
16408;DHT22;8313;49.894;8.084;2023-08-01T00:58:10;18.60;99.90
16408;DHT22;8313;49.894;8.084;2023-08-01T01:00:36;18.60;99.90
16408;DHT22;8313;49.894;8.084;2023-08-01T01:03:02;18.60;99.90
16408;DHT22;8313;49.894;8.084;2023-08-01T01:05:31;18.60;99.90
16408;DHT22;8313;49.894;8.084;2023-08-01T01:07:59;18.50;99.90
16408;DHT22;8313;49.894;8.084;2023-08-01T01:10:25;18.60;99.90
16408;DHT22;8313;49.894;8.084;2023-08-01T01:12:50;18.60;99.90
16408;DHT22;8313;49.894;8.084;2023-08-01T01:15:16;18.60;99.90
16408;DHT22;8313;49.894;8.084;2023-08-01T01:17:41;18.50;99.90
16408;DHT22;8313;49.894;8.084;2023-08-01T01:20:07;18.50;99.90
16408;DHT22;8313;49.894;8.084;2023-08-01T01:22:33;18.40;99.90
16408;DHT22;8313;49.894;8.084;2023-08-01T01:25:00;18.30;99.90
16408;DHT22;8313;49.894;8.084;2023-08-01T01:27:27;18.30;99.90
16408;DHT22;8313;49.894;8.084;2023-08-01T01:29:55;18.20;99.90
16408;DHT22;8313;49.894;8.084;2023-08-01T01:32:21;18.40;99.90
16408;DHT22;8313;49.894;8.084;2023-08-01T01:34:47;18.50;99.90
16408;DHT22;8313;49.894;8.084;2023-08-01T01:37:13;18.60;99.90
16408;DHT22;8313;49.894;8.084;2023-08-01T01:39:38;18.60;99.90
16408;DHT22;8313;49.894;8.084;2023-08-01T01:42:04;18.50;99.90
16408;DHT22;8313;49.894;8.084;2023-08-01T01:44:30;18.40;99.90
16408;DHT22;8313;49.894;8.084;2023-08-01T01:46:56;18.50;99.90
16408;DHT22;8313;49.894;8.084;2023-08-01T01:49:22;18.50;99.90
16408;DHT22;8313;49.894;8.084;2023-08-01T01:51:48;18.30;99.90
16408;DHT22;8313;49.894;8.084;2023-08-01T01:54:13;18.40;99.90
16408;DHT22;8313;49.894;8.084;2023-08-01T01:56:39;18.20;99.90
16408;DHT22;8313;49.894;8.084;2023-08-01T01:59:05;18.20;99.90
16408;DHT22;8313;49.894;8.084;2023-08-01T02:01:30;18.10;99.90
16408;DHT22;8313;49.894;8.084;2023-08-01T02:03:56;18.20;99.90
16408;DHT22;8313;49.894;8.084;2023-08-01T02:06:21;18.20;99.90
16408;DHT22;8313;49.894;8.084;2023-08-01T02:08:47;18.30;99.90
16408;DHT22;8313;49.894;8.084;2023-08-01T02:11:13;18.20;99.90
16408;DHT22;8313;49.894;8.084;2023-08-01T02:13:38;18.10;99.90
16408;DHT22;8313;49.894;8.084;2023-08-01T02:16:04;18.10;99.90
16408;DHT22;8313;49.894;8.084;2023-08-01T02:18:30;18.10;99.90
16408;DHT22;8313;49.894;8.084;2023-08-01T02:20:55;18.10;99.90
16408;DHT22;8313;49.894;8.084;2023-08-01T02:23:21;18.30;99.90
16408;DHT22;8313;49.894;8.084;2023-08-01T02:25:47;18.40;99.90
16408;DHT22;8313;49.894;8.084;2023-08-01T02:28:12;18.40;99.90
16408;DHT22;8313;49.894;8.084;2023-08-01T02:30:38;18.40;99.90
16408;DHT22;8313;49.894;8.084;2023-08-01T02:33:04;18.30;99.90
16408;DHT22;8313;49.894;8.084;2023-08-01T02:35:30;18.30;99.90
16408;DHT22;8313;49.894;8.084;2023-08-01T02:37:56;18.20;99.90
16408;DHT22;8313;49.894;8.084;2023-08-01T02:40:21;18.10;99.90
16408;DHT22;8313;49.894;8.084;2023-08-01T02:42:48;18.20;99.90
16408;DHT22;8313;49.894;8.084;2023-08-01T02:45:14;18.10;99.90
16408;DHT22;8313;49.894;8.084;2023-08-01T02:47:40;18.10;99.90
16408;DHT22;8313;49.894;8.084;2023-08-01T02:50:06;18.10;99.90
16408;DHT22;8313;49.894;8.084;2023-08-01T02:52:32;18.10;99.90
16408;DHT22;8313;49.894;8.084;2023-08-01T02:54:57;18.10;99.90
16408;DHT22;8313;49.894;8.084;2023-08-01T02:57:24;18.10;99.90
16408;DHT22;8313;49.894;8.084;2023-08-01T02:59:49;18.10;99.90
16408;DHT22;8313;49.894;8.084;2023-08-01T03:02:15;18.10;99.90
16408;DHT22;8313;49.894;8.084;2023-08-01T03:04:41;18.10;99.90
16408;DHT22;8313;49.894;8.084;2023-08-01T03:07:07;18.20;99.90
16408;DHT22;8313;49.894;8.084;2023-08-01T03:09:33;18.10;99.90
16408;DHT22;8313;49.894;8.084;2023-08-01T03:11:59;18.10;99.90
16408;DHT22;8313;49.894;8.084;2023-08-01T03:14:24;18.10;99.90
16408;DHT22;8313;49.894;8.084;2023-08-01T03:16:50;18.10;99.90
16408;DHT22;8313;49.894;8.084;2023-08-01T03:19:15;18.00;99.90
16408;DHT22;8313;49.894;8.084;2023-08-01T03:21:41;18.00;99.90
16408;DHT22;8313;49.894;8.084;2023-08-01T03:24:07;18.10;99.90
16408;DHT22;8313;49.894;8.084;2023-08-01T03:26:35;18.10;99.90
16408;DHT22;8313;49.894;8.084;2023-08-01T03:29:01;18.00;99.90
16408;DHT22;8313;49.894;8.084;2023-08-01T03:31:27;18.10;99.90
16408;DHT22;8313;49.894;8.084;2023-08-01T03:33:53;18.00;99.90
16408;DHT22;8313;49.894;8.084;2023-08-01T03:36:19;18.00;99.90
16408;DHT22;8313;49.894;8.084;2023-08-01T03:38:45;17.90;99.90
16408;DHT22;8313;49.894;8.084;2023-08-01T03:41:11;18.00;99.90
16408;DHT22;8313;49.894;8.084;2023-08-01T03:43:37;17.90;99.90
16408;DHT22;8313;49.894;8.084;2023-08-01T03:46:02;17.90;99.90
16408;DHT22;8313;49.894;8.084;2023-08-01T03:48:28;18.00;99.90
16408;DHT22;8313;49.894;8.084;2023-08-01T03:50:54;18.00;99.90
16408;DHT22;8313;49.894;8.084;2023-08-01T03:53:19;18.10;99.90
16408;DHT22;8313;49.894;8.084;2023-08-01T03:55:47;18.00;99.90
16408;DHT22;8313;49.894;8.084;2023-08-01T03:58:14;18.10;99.90
16408;DHT22;8313;49.894;8.084;2023-08-01T04:00:39;18.10;99.90
16408;DHT22;8313;49.894;8.084;2023-08-01T04:03:05;18.10;99.90
16408;DHT22;8313;49.894;8.084;2023-08-01T04:05:30;18.10;99.90
16408;DHT22;8313;49.894;8.084;2023-08-01T04:07:57;18.20;99.90
16408;DHT22;8313;49.894;8.084;2023-08-01T04:10:22;18.20;99.90
16408;DHT22;8313;49.894;8.084;2023-08-01T04:12:48;18.20;99.90
16408;DHT22;8313;49.894;8.084;2023-08-01T04:15:14;18.10;99.90
16408;DHT22;8313;49.894;8.084;2023-08-01T04:17:40;18.00;99.90
16408;DHT22;8313;49.894;8.084;2023-08-01T04:20:06;18.10;99.90
16408;DHT22;8313;49.894;8.084;2023-08-01T04:22:32;18.10;99.90
16408;DHT22;8313;49.894;8.084;2023-08-01T04:24:58;18.10;99.90
16408;DHT22;8313;49.894;8.084;2023-08-01T04:27:23;18.00;99.90
16408;DHT22;8313;49.894;8.084;2023-08-01T04:29:49;18.10;99.90
16408;DHT22;8313;49.894;8.084;2023-08-01T04:32:15;18.00;99.90
16408;DHT22;8313;49.894;8.084;2023-08-01T04:34:41;18.00;99.90
16408;DHT22;8313;49.894;8.084;2023-08-01T04:37:07;17.90;99.90
16408;DHT22;8313;49.894;8.084;2023-08-01T04:39:33;18.00;99.90
16408;DHT22;8313;49.894;8.084;2023-08-01T04:41:59;17.90;99.90
16408;DHT22;8313;49.894;8.084;2023-08-01T04:44:25;17.90;99.90
16408;DHT22;8313;49.894;8.084;2023-08-01T04:46:50;18.00;99.90
16408;DHT22;8313;49.894;8.084;2023-08-01T04:49:16;18.10;99.90
16408;DHT22;8313;49.894;8.084;2023-08-01T04:51:42;18.10;99.90
16408;DHT22;8313;49.894;8.084;2023-08-01T04:54:07;18.00;99.90
16408;DHT22;8313;49.894;8.084;2023-08-01T04:56:33;18.10;99.90
16408;DHT22;8313;49.894;8.084;2023-08-01T04:58:58;18.10;99.90
16408;DHT22;8313;49.894;8.084;2023-08-01T05:01:24;18.00;99.90
16408;DHT22;8313;49.894;8.084;2023-08-01T05:03:50;18.00;99.90
16408;DHT22;8313;49.894;8.084;2023-08-01T05:06:15;18.00;99.90
16408;DHT22;8313;49.894;8.084;2023-08-01T05:08:41;17.90;99.90
16408;DHT22;8313;49.894;8.084;2023-08-01T05:11:07;17.90;99.90
16408;DHT22;8313;49.894;8.084;2023-08-01T05:13:32;17.90;99.90
16408;DHT22;8313;49.894;8.084;2023-08-01T05:15:58;17.90;99.90
16408;DHT22;8313;49.894;8.084;2023-08-01T05:18:24;17.80;99.90
16408;DHT22;8313;49.894;8.084;2023-08-01T05:20:49;17.80;99.90
16408;DHT22;8313;49.894;8.084;2023-08-01T05:23:15;18.00;99.90
16408;DHT22;8313;49.894;8.084;2023-08-01T05:25:41;17.90;99.90
16408;DHT22;8313;49.894;8.084;2023-08-01T05:28:06;17.90;99.90
16408;DHT22;8313;49.894;8.084;2023-08-01T05:30:32;17.80;99.90
16408;DHT22;8313;49.894;8.084;2023-08-01T05:32:58;17.80;99.90
16408;DHT22;8313;49.894;8.084;2023-08-01T05:35:24;17.70;99.90
16408;DHT22;8313;49.894;8.084;2023-08-01T05:37:49;17.80;99.90
16408;DHT22;8313;49.894;8.084;2023-08-01T05:40:15;17.80;99.90
16408;DHT22;8313;49.894;8.084;2023-08-01T05:42:41;17.70;99.90
16408;DHT22;8313;49.894;8.084;2023-08-01T05:45:07;17.70;99.90
16408;DHT22;8313;49.894;8.084;2023-08-01T05:47:32;17.90;99.90
16408;DHT22;8313;49.894;8.084;2023-08-01T05:49:58;17.80;99.90
16408;DHT22;8313;49.894;8.084;2023-08-01T05:52:24;17.70;99.90
16408;DHT22;8313;49.894;8.084;2023-08-01T05:54:49;17.60;99.90
16408;DHT22;8313;49.894;8.084;2023-08-01T05:57:15;17.60;99.90
16408;DHT22;8313;49.894;8.084;2023-08-01T05:59:41;17.70;99.90
16408;DHT22;8313;49.894;8.084;2023-08-01T06:02:06;17.70;99.90
16408;DHT22;8313;49.894;8.084;2023-08-01T06:04:32;17.80;99.90
16408;DHT22;8313;49.894;8.084;2023-08-01T06:06:58;17.80;99.90
16408;DHT22;8313;49.894;8.084;2023-08-01T06:09:24;17.70;99.90
16408;DHT22;8313;49.894;8.084;2023-08-01T06:11:50;17.70;99.90
16408;DHT22;8313;49.894;8.084;2023-08-01T06:14:16;17.70;99.90
16408;DHT22;8313;49.894;8.084;2023-08-01T06:16:42;17.70;99.90
16408;DHT22;8313;49.894;8.084;2023-08-01T06:19:08;17.70;99.90
16408;DHT22;8313;49.894;8.084;2023-08-01T06:21:33;17.60;99.90
16408;DHT22;8313;49.894;8.084;2023-08-01T06:23:59;17.70;99.90
16408;DHT22;8313;49.894;8.084;2023-08-01T06:26:25;17.70;99.90
16408;DHT22;8313;49.894;8.084;2023-08-01T06:28:51;17.70;99.90
16408;DHT22;8313;49.894;8.084;2023-08-01T06:31:20;17.80;99.90
16408;DHT22;8313;49.894;8.084;2023-08-01T06:33:46;17.90;99.90
16408;DHT22;8313;49.894;8.084;2023-08-01T06:36:11;18.00;99.90
16408;DHT22;8313;49.894;8.084;2023-08-01T06:38:38;18.10;99.90
16408;DHT22;8313;49.894;8.084;2023-08-01T06:41:04;18.10;99.90
16408;DHT22;8313;49.894;8.084;2023-08-01T06:43:30;17.90;99.90
16408;DHT22;8313;49.894;8.084;2023-08-01T06:45:55;17.70;99.90
16408;DHT22;8313;49.894;8.084;2023-08-01T06:48:21;17.60;99.90
16408;DHT22;8313;49.894;8.084;2023-08-01T06:50:47;17.60;99.90
16408;DHT22;8313;49.894;8.084;2023-08-01T06:53:12;17.50;99.90
16408;DHT22;8313;49.894;8.084;2023-08-01T06:55:38;17.50;99.90
16408;DHT22;8313;49.894;8.084;2023-08-01T06:58:05;17.60;99.90
16408;DHT22;8313;49.894;8.084;2023-08-01T07:00:31;17.60;99.90
16408;DHT22;8313;49.894;8.084;2023-08-01T07:02:57;17.60;99.90
16408;DHT22;8313;49.894;8.084;2023-08-01T07:05:23;17.70;99.90
16408;DHT22;8313;49.894;8.084;2023-08-01T07:07:49;17.70;99.90
16408;DHT22;8313;49.894;8.084;2023-08-01T07:10:14;17.70;99.90
16408;DHT22;8313;49.894;8.084;2023-08-01T07:12:40;17.70;99.90
16408;DHT22;8313;49.894;8.084;2023-08-01T07:15:06;17.80;99.90
16408;DHT22;8313;49.894;8.084;2023-08-01T07:17:33;17.80;99.90
16408;DHT22;8313;49.894;8.084;2023-08-01T07:19:59;17.80;99.90
16408;DHT22;8313;49.894;8.084;2023-08-01T07:22:24;17.80;99.90
16408;DHT22;8313;49.894;8.084;2023-08-01T07:24:54;17.90;99.90
16408;DHT22;8313;49.894;8.084;2023-08-01T07:27:20;17.90;99.90
16408;DHT22;8313;49.894;8.084;2023-08-01T07:29:46;17.80;99.90
16408;DHT22;8313;49.894;8.084;2023-08-01T07:32:12;17.80;99.90
16408;DHT22;8313;49.894;8.084;2023-08-01T07:34:38;17.80;99.90
16408;DHT22;8313;49.894;8.084;2023-08-01T07:37:04;17.90;99.90
16408;DHT22;8313;49.894;8.084;2023-08-01T07:39:29;17.90;99.90
16408;DHT22;8313;49.894;8.084;2023-08-01T07:41:55;18.10;99.90
16408;DHT22;8313;49.894;8.084;2023-08-01T07:44:21;18.20;99.90
16408;DHT22;8313;49.894;8.084;2023-08-01T07:46:47;18.30;99.90
16408;DHT22;8313;49.894;8.084;2023-08-01T07:49:13;18.40;99.90
16408;DHT22;8313;49.894;8.084;2023-08-01T07:51:38;18.50;99.90
16408;DHT22;8313;49.894;8.084;2023-08-01T07:54:04;18.60;99.90
16408;DHT22;8313;49.894;8.084;2023-08-01T07:56:30;18.60;99.90
16408;DHT22;8313;49.894;8.084;2023-08-01T07:58:55;18.70;99.90
16408;DHT22;8313;49.894;8.084;2023-08-01T08:01:21;18.70;99.90
16408;DHT22;8313;49.894;8.084;2023-08-01T08:03:47;18.80;99.90
16408;DHT22;8313;49.894;8.084;2023-08-01T08:06:12;18.90;99.90
16408;DHT22;8313;49.894;8.084;2023-08-01T08:08:38;18.90;99.90
16408;DHT22;8313;49.894;8.084;2023-08-01T08:11:04;19.00;99.90
16408;DHT22;8313;49.894;8.084;2023-08-01T08:13:30;19.00;99.90
16408;DHT22;8313;49.894;8.084;2023-08-01T08:15:56;19.10;99.90
16408;DHT22;8313;49.894;8.084;2023-08-01T08:18:22;19.10;99.90
16408;DHT22;8313;49.894;8.084;2023-08-01T08:20:48;19.10;99.90
16408;DHT22;8313;49.894;8.084;2023-08-01T08:23:14;19.20;99.90
16408;DHT22;8313;49.894;8.084;2023-08-01T08:25:43;19.30;99.90
16408;DHT22;8313;49.894;8.084;2023-08-01T08:28:13;19.40;99.90
16408;DHT22;8313;49.894;8.084;2023-08-01T08:30:39;19.40;99.90
16408;DHT22;8313;49.894;8.084;2023-08-01T08:33:05;19.40;99.90
16408;DHT22;8313;49.894;8.084;2023-08-01T08:35:35;19.50;99.90
16408;DHT22;8313;49.894;8.084;2023-08-01T08:38:02;19.50;99.90
16408;DHT22;8313;49.894;8.084;2023-08-01T08:40:31;19.60;99.90
16408;DHT22;8313;49.894;8.084;2023-08-01T08:43:00;19.60;99.90
16408;DHT22;8313;49.894;8.084;2023-08-01T08:45:29;19.60;99.90
16408;DHT22;8313;49.894;8.084;2023-08-01T08:48:03;19.70;99.90
16408;DHT22;8313;49.894;8.084;2023-08-01T08:50:33;19.70;99.90
16408;DHT22;8313;49.894;8.084;2023-08-01T08:53:01;19.70;99.90
16408;DHT22;8313;49.894;8.084;2023-08-01T08:55:28;19.70;99.90
16408;DHT22;8313;49.894;8.084;2023-08-01T08:57:55;19.70;99.90
16408;DHT22;8313;49.894;8.084;2023-08-01T09:00:21;19.80;99.90
16408;DHT22;8313;49.894;8.084;2023-08-01T09:02:48;19.90;99.90
16408;DHT22;8313;49.894;8.084;2023-08-01T09:05:13;20.00;99.90
16408;DHT22;8313;49.894;8.084;2023-08-01T09:07:45;20.00;99.90
16408;DHT22;8313;49.894;8.084;2023-08-01T09:10:13;19.90;99.90
16408;DHT22;8313;49.894;8.084;2023-08-01T09:12:38;19.90;99.90
16408;DHT22;8313;49.894;8.084;2023-08-01T09:15:04;20.00;99.90
16408;DHT22;8313;49.894;8.084;2023-08-01T09:17:30;20.10;99.90
16408;DHT22;8313;49.894;8.084;2023-08-01T09:20:06;20.20;99.90
16408;DHT22;8313;49.894;8.084;2023-08-01T09:22:43;20.20;99.90
16408;DHT22;8313;49.894;8.084;2023-08-01T09:25:09;20.30;99.90
16408;DHT22;8313;49.894;8.084;2023-08-01T09:27:35;20.20;99.90
16408;DHT22;8313;49.894;8.084;2023-08-01T09:30:11;20.30;99.90
16408;DHT22;8313;49.894;8.084;2023-08-01T09:32:39;20.30;99.90
16408;DHT22;8313;49.894;8.084;2023-08-01T09:35:05;20.30;99.90
16408;DHT22;8313;49.894;8.084;2023-08-01T09:37:57;20.50;99.90
16408;DHT22;8313;49.894;8.084;2023-08-01T09:40:25;20.50;99.90
16408;DHT22;8313;49.894;8.084;2023-08-01T09:42:51;20.40;99.90
16408;DHT22;8313;49.894;8.084;2023-08-01T09:45:17;20.60;99.90
16408;DHT22;8313;49.894;8.084;2023-08-01T09:47:44;20.70;99.90
16408;DHT22;8313;49.894;8.084;2023-08-01T09:50:11;20.70;99.90
16408;DHT22;8313;49.894;8.084;2023-08-01T09:52:38;20.80;99.90
16408;DHT22;8313;49.894;8.084;2023-08-01T09:55:04;21.00;99.90
16408;DHT22;8313;49.894;8.084;2023-08-01T09:57:31;21.10;99.90
16408;DHT22;8313;49.894;8.084;2023-08-01T09:59:58;21.00;99.90
16408;DHT22;8313;49.894;8.084;2023-08-01T10:02:26;21.20;99.90
16408;DHT22;8313;49.894;8.084;2023-08-01T10:04:57;21.20;99.90
16408;DHT22;8313;49.894;8.084;2023-08-01T10:07:25;21.10;99.90
16408;DHT22;8313;49.894;8.084;2023-08-01T10:09:54;21.00;99.90
16408;DHT22;8313;49.894;8.084;2023-08-01T10:12:22;21.10;99.90
16408;DHT22;8313;49.894;8.084;2023-08-01T10:14:50;21.10;99.90
16408;DHT22;8313;49.894;8.084;2023-08-01T10:17:16;21.20;99.90
16408;DHT22;8313;49.894;8.084;2023-08-01T10:19:42;21.30;99.90
16408;DHT22;8313;49.894;8.084;2023-08-01T10:22:08;21.40;99.90
16408;DHT22;8313;49.894;8.084;2023-08-01T10:24:36;21.50;99.90
16408;DHT22;8313;49.894;8.084;2023-08-01T10:27:18;21.60;99.90
16408;DHT22;8313;49.894;8.084;2023-08-01T10:29:44;21.60;99.90
16408;DHT22;8313;49.894;8.084;2023-08-01T10:32:11;21.70;99.90
16408;DHT22;8313;49.894;8.084;2023-08-01T10:34:37;21.60;99.90
16408;DHT22;8313;49.894;8.084;2023-08-01T10:37:03;21.70;99.90
16408;DHT22;8313;49.894;8.084;2023-08-01T10:39:29;21.90;99.90
16408;DHT22;8313;49.894;8.084;2023-08-01T10:42:02;21.80;99.90
16408;DHT22;8313;49.894;8.084;2023-08-01T10:44:28;21.70;99.90
16408;DHT22;8313;49.894;8.084;2023-08-01T10:47:04;21.70;99.90
16408;DHT22;8313;49.894;8.084;2023-08-01T10:49:37;21.60;99.90
16408;DHT22;8313;49.894;8.084;2023-08-01T10:52:24;21.60;99.90
16408;DHT22;8313;49.894;8.084;2023-08-01T10:55:00;21.70;99.90
16408;DHT22;8313;49.894;8.084;2023-08-01T10:57:30;21.80;99.90
16408;DHT22;8313;49.894;8.084;2023-08-01T10:59:56;21.90;99.90
16408;DHT22;8313;49.894;8.084;2023-08-01T11:02:26;21.90;99.90
16408;DHT22;8313;49.894;8.084;2023-08-01T11:04:59;21.90;99.90
16408;DHT22;8313;49.894;8.084;2023-08-01T11:07:25;22.00;99.90
16408;DHT22;8313;49.894;8.084;2023-08-01T11:12:39;22.10;99.90
16408;DHT22;8313;49.894;8.084;2023-08-01T11:15:10;22.10;99.90
16408;DHT22;8313;49.894;8.084;2023-08-01T11:17:36;22.40;99.90
16408;DHT22;8313;49.894;8.084;2023-08-01T11:20:07;22.50;99.90
16408;DHT22;8313;49.894;8.084;2023-08-01T11:22:34;22.60;99.90
16408;DHT22;8313;49.894;8.084;2023-08-01T11:25:00;22.60;99.90
16408;DHT22;8313;49.894;8.084;2023-08-01T11:27:26;22.50;99.90
16408;DHT22;8313;49.894;8.084;2023-08-01T11:29:55;22.30;99.90
16408;DHT22;8313;49.894;8.084;2023-08-01T11:32:22;22.40;99.90
16408;DHT22;8313;49.894;8.084;2023-08-01T11:34:57;22.50;99.90
16408;DHT22;8313;49.894;8.084;2023-08-01T11:37:26;22.50;99.90
16408;DHT22;8313;49.894;8.084;2023-08-01T11:39:52;22.40;99.90
16408;DHT22;8313;49.894;8.084;2023-08-01T11:42:17;22.30;99.90
16408;DHT22;8313;49.894;8.084;2023-08-01T11:44:44;22.40;99.90
16408;DHT22;8313;49.894;8.084;2023-08-01T11:47:13;22.50;99.90
16408;DHT22;8313;49.894;8.084;2023-08-01T11:49:45;22.70;99.90
16408;DHT22;8313;49.894;8.084;2023-08-01T11:52:10;22.80;99.90
16408;DHT22;8313;49.894;8.084;2023-08-01T11:54:46;22.70;99.90
16408;DHT22;8313;49.894;8.084;2023-08-01T11:57:12;22.80;99.90
16408;DHT22;8313;49.894;8.084;2023-08-01T11:59:53;22.70;99.90
16408;DHT22;8313;49.894;8.084;2023-08-01T12:02:26;22.70;99.90
16408;DHT22;8313;49.894;8.084;2023-08-01T12:04:53;22.70;99.90
16408;DHT22;8313;49.894;8.084;2023-08-01T12:07:20;22.80;99.90
16408;DHT22;8313;49.894;8.084;2023-08-01T12:09:58;22.90;99.90
16408;DHT22;8313;49.894;8.084;2023-08-01T12:12:27;23.10;99.90
16408;DHT22;8313;49.894;8.084;2023-08-01T12:14:53;23.20;99.90
16408;DHT22;8313;49.894;8.084;2023-08-01T12:17:20;23.30;99.90
16408;DHT22;8313;49.894;8.084;2023-08-01T12:19:45;23.40;99.90
16408;DHT22;8313;49.894;8.084;2023-08-01T12:22:12;23.40;99.90
16408;DHT22;8313;49.894;8.084;2023-08-01T12:24:37;23.70;99.90
16408;DHT22;8313;49.894;8.084;2023-08-01T12:27:10;23.70;99.90
16408;DHT22;8313;49.894;8.084;2023-08-01T12:29:36;23.60;99.90
16408;DHT22;8313;49.894;8.084;2023-08-01T12:32:03;23.60;99.90
16408;DHT22;8313;49.894;8.084;2023-08-01T12:34:29;23.60;99.90
16408;DHT22;8313;49.894;8.084;2023-08-01T12:36:54;23.70;99.90
16408;DHT22;8313;49.894;8.084;2023-08-01T12:39:20;23.80;99.90
16408;DHT22;8313;49.894;8.084;2023-08-01T12:41:46;23.80;99.90
16408;DHT22;8313;49.894;8.084;2023-08-01T12:44:11;23.90;99.90
16408;DHT22;8313;49.894;8.084;2023-08-01T12:46:41;23.90;99.90
16408;DHT22;8313;49.894;8.084;2023-08-01T12:49:07;23.80;99.90
16408;DHT22;8313;49.894;8.084;2023-08-01T12:51:32;23.90;99.90
16408;DHT22;8313;49.894;8.084;2023-08-01T12:53:58;23.90;99.90
16408;DHT22;8313;49.894;8.084;2023-08-01T12:56:24;23.90;99.90
16408;DHT22;8313;49.894;8.084;2023-08-01T12:58:49;24.10;99.90
16408;DHT22;8313;49.894;8.084;2023-08-01T13:01:15;24.20;99.90
16408;DHT22;8313;49.894;8.084;2023-08-01T13:03:41;24.30;99.90
16408;DHT22;8313;49.894;8.084;2023-08-01T13:06:09;24.30;99.90
16408;DHT22;8313;49.894;8.084;2023-08-01T13:08:35;24.30;99.90
16408;DHT22;8313;49.894;8.084;2023-08-01T13:11:01;24.40;99.90
16408;DHT22;8313;49.894;8.084;2023-08-01T13:13:28;24.20;99.90
16408;DHT22;8313;49.894;8.084;2023-08-01T13:15:55;24.40;99.90
16408;DHT22;8313;49.894;8.084;2023-08-01T13:18:21;24.40;99.90
16408;DHT22;8313;49.894;8.084;2023-08-01T13:20:47;24.40;99.90
16408;DHT22;8313;49.894;8.084;2023-08-01T13:23:13;24.40;99.90
16408;DHT22;8313;49.894;8.084;2023-08-01T13:25:39;24.20;99.90
16408;DHT22;8313;49.894;8.084;2023-08-01T13:28:05;24.10;99.90
16408;DHT22;8313;49.894;8.084;2023-08-01T13:30:30;24.00;99.90
16408;DHT22;8313;49.894;8.084;2023-08-01T13:32:56;23.90;99.90
16408;DHT22;8313;49.894;8.084;2023-08-01T13:35:21;23.80;99.90
16408;DHT22;8313;49.894;8.084;2023-08-01T13:37:48;23.80;99.90
16408;DHT22;8313;49.894;8.084;2023-08-01T13:40:13;23.70;99.90
16408;DHT22;8313;49.894;8.084;2023-08-01T13:42:40;23.50;99.90
16408;DHT22;8313;49.894;8.084;2023-08-01T13:45:06;23.40;99.90
16408;DHT22;8313;49.894;8.084;2023-08-01T13:47:32;23.00;99.90
16408;DHT22;8313;49.894;8.084;2023-08-01T13:49:57;22.80;99.90
16408;DHT22;8313;49.894;8.084;2023-08-01T13:52:23;22.80;99.90
16408;DHT22;8313;49.894;8.084;2023-08-01T13:54:49;22.90;99.90
16408;DHT22;8313;49.894;8.084;2023-08-01T13:57:14;23.00;99.90
16408;DHT22;8313;49.894;8.084;2023-08-01T13:59:40;23.00;99.90
16408;DHT22;8313;49.894;8.084;2023-08-01T14:02:06;22.90;99.90
16408;DHT22;8313;49.894;8.084;2023-08-01T14:04:31;22.80;99.90
16408;DHT22;8313;49.894;8.084;2023-08-01T14:06:57;22.70;99.90
16408;DHT22;8313;49.894;8.084;2023-08-01T14:09:22;22.40;99.90
16408;DHT22;8313;49.894;8.084;2023-08-01T14:11:48;22.40;99.90
16408;DHT22;8313;49.894;8.084;2023-08-01T14:14:14;22.30;99.90
16408;DHT22;8313;49.894;8.084;2023-08-01T14:16:39;22.40;99.90
16408;DHT22;8313;49.894;8.084;2023-08-01T14:19:05;22.50;99.90
16408;DHT22;8313;49.894;8.084;2023-08-01T14:21:34;22.40;99.90
16408;DHT22;8313;49.894;8.084;2023-08-01T14:24:00;22.40;99.90
16408;DHT22;8313;49.894;8.084;2023-08-01T14:26:25;22.40;99.90
16408;DHT22;8313;49.894;8.084;2023-08-01T14:28:51;22.50;99.90
16408;DHT22;8313;49.894;8.084;2023-08-01T14:31:17;22.40;99.90
16408;DHT22;8313;49.894;8.084;2023-08-01T14:33:42;22.50;99.90
16408;DHT22;8313;49.894;8.084;2023-08-01T14:36:12;22.50;99.90
16408;DHT22;8313;49.894;8.084;2023-08-01T14:38:38;22.50;99.90
16408;DHT22;8313;49.894;8.084;2023-08-01T14:41:04;22.50;99.90
16408;DHT22;8313;49.894;8.084;2023-08-01T14:43:30;22.30;99.90
16408;DHT22;8313;49.894;8.084;2023-08-01T14:45:56;22.40;99.90
16408;DHT22;8313;49.894;8.084;2023-08-01T14:48:22;22.60;99.90
16408;DHT22;8313;49.894;8.084;2023-08-01T14:50:48;22.60;99.90
16408;DHT22;8313;49.894;8.084;2023-08-01T14:53:16;22.60;99.90
16408;DHT22;8313;49.894;8.084;2023-08-01T14:55:42;22.60;99.90
16408;DHT22;8313;49.894;8.084;2023-08-01T14:58:07;22.60;99.90
16408;DHT22;8313;49.894;8.084;2023-08-01T15:00:36;22.30;99.90
16408;DHT22;8313;49.894;8.084;2023-08-01T15:03:02;22.10;99.90
16408;DHT22;8313;49.894;8.084;2023-08-01T15:05:28;22.00;99.90
16408;DHT22;8313;49.894;8.084;2023-08-01T15:07:54;21.80;99.90
16408;DHT22;8313;49.894;8.084;2023-08-01T15:10:20;21.60;99.90
16408;DHT22;8313;49.894;8.084;2023-08-01T15:12:45;21.30;99.90
16408;DHT22;8313;49.894;8.084;2023-08-01T15:15:11;21.20;99.90
16408;DHT22;8313;49.894;8.084;2023-08-01T15:17:37;21.20;99.90
16408;DHT22;8313;49.894;8.084;2023-08-01T15:20:03;21.30;99.90
16408;DHT22;8313;49.894;8.084;2023-08-01T15:22:29;21.20;99.90
16408;DHT22;8313;49.894;8.084;2023-08-01T15:24:54;21.00;99.90
16408;DHT22;8313;49.894;8.084;2023-08-01T15:27:20;20.90;99.90
16408;DHT22;8313;49.894;8.084;2023-08-01T15:29:46;21.00;99.90
16408;DHT22;8313;49.894;8.084;2023-08-01T15:32:14;20.70;99.90
16408;DHT22;8313;49.894;8.084;2023-08-01T15:34:40;20.70;99.90
16408;DHT22;8313;49.894;8.084;2023-08-01T15:37:09;20.60;99.90
16408;DHT22;8313;49.894;8.084;2023-08-01T15:39:35;20.50;99.90
16408;DHT22;8313;49.894;8.084;2023-08-01T15:42:04;20.60;99.90
16408;DHT22;8313;49.894;8.084;2023-08-01T15:44:30;20.60;99.90